Time;durP1;ratioP1;P1;durP2;ratioP2;P2;SDS_P1;SDS_P2;PMS_P1;PMS_P2;Temp;Humidity;BMP_temperature;BMP_pressure;BME280_temperature;BME280_humidity;BME280_pressure;Samples;Min_cycle;Max_cycle;Signal;HPM_P1;HPM_P2
2021/01/16 00:02:01;;;;;;;1.52;1.10;;;0.70;99.90;;;;;;4891645;29;20065;-75
2021/01/16 00:04:27;;;;;;;2.53;1.42;;;0.70;99.90;;;;;;4891742;29;20040;-74
2021/01/16 00:06:53;;;;;;;2.67;1.65;;;0.70;99.90;;;;;;4874940;29;20120;-74
2021/01/16 00:09:19;;;;;;;1.83;1.13;;;0.70;99.90;;;;;;4891549;29;20062;-74
2021/01/16 00:11:47;;;;;;;4.53;2.08;;;0.60;99.90;;;;;;4874400;29;20068;-74
2021/01/16 00:14:13;;;;;;;4.03;1.52;;;0.70;99.90;;;;;;4891475;29;20033;-75
2021/01/16 00:16:38;;;;;;;6.15;1.95;;;0.60;99.90;;;;;;4891678;29;20036;-74
2021/01/16 00:19:04;;;;;;;4.82;2.10;;;0.60;99.90;;;;;;4875029;29;20065;-75
2021/01/16 00:21:29;;;;;;;3.72;1.85;;;0.70;99.90;;;;;;4891507;29;20033;-74
2021/01/16 00:23:55;;;;;;;3.40;1.42;;;0.70;99.90;;;;;;4874676;29;20125;-74
2021/01/16 00:26:20;;;;;;;3.42;1.75;;;0.70;99.90;;;;;;4891327;29;20063;-74
2021/01/16 00:28:46;;;;;;;7.07;1.95;;;0.60;99.90;;;;;;4891078;29;20025;-74
2021/01/16 00:31:11;;;;;;;4.15;1.83;;;0.70;99.90;;;;;;4891137;29;20476;-76
2021/01/16 00:33:37;;;;;;;4.03;2.00;;;0.60;99.90;;;;;;4874736;29;20022;-75
2021/01/16 00:36:05;;;;;;;5.75;1.50;;;0.60;99.90;;;;;;4891155;29;20080;-75
2021/01/16 00:38:37;;;;;;;4.40;1.58;;;0.60;99.90;;;;;;4891421;29;20043;-74
2021/01/16 00:41:03;;;;;;;3.63;1.98;;;0.60;99.90;;;;;;4891075;29;20063;-74
2021/01/16 00:43:29;;;;;;;4.25;1.75;;;0.60;99.90;;;;;;4874072;29;20119;-74
2021/01/16 00:45:54;;;;;;;4.90;2.15;;;0.60;99.90;;;;;;4891189;29;20102;-74
2021/01/16 00:48:22;;;;;;;5.55;1.88;;;0.60;99.90;;;;;;4873699;29;20033;-75
2021/01/16 00:50:50;;;;;;;3.50;1.42;;;0.60;99.90;;;;;;4890969;29;20037;-75
2021/01/16 00:53:17;;;;;;;4.63;1.73;;;0.50;99.90;;;;;;4874157;29;20054;-75
2021/01/16 00:55:43;;;;;;;7.22;2.88;;;0.50;99.90;;;;;;4890412;29;20036;-76
2021/01/16 00:58:16;;;;;;;3.05;1.58;;;0.50;99.90;;;;;;4874395;29;20033;-74
2021/01/16 01:00:43;;;;;;;3.73;1.87;;;0.50;99.90;;;;;;4890914;29;20061;-75
2021/01/16 01:03:14;;;;;;;4.05;1.60;;;0.50;99.90;;;;;;4890652;29;20262;-76
2021/01/16 01:05:40;;;;;;;3.20;1.38;;;0.50;99.90;;;;;;4874241;29;20041;-75
2021/01/16 01:08:05;;;;;;;6.32;1.85;;;0.60;99.90;;;;;;4890822;29;20025;-75
2021/01/16 01:10:34;;;;;;;3.20;1.65;;;0.60;99.90;;;;;;4873918;29;20052;-75
2021/01/16 01:13:00;;;;;;;4.90;2.15;;;0.60;99.90;;;;;;4890991;29;20029;-74
2021/01/16 01:15:25;;;;;;;6.47;2.42;;;0.60;99.90;;;;;;4873810;29;20057;-74
2021/01/16 01:17:56;;;;;;;5.53;2.28;;;0.60;99.90;;;;;;4889968;29;20037;-74
2021/01/16 01:20:23;;;;;;;2.25;1.55;;;0.60;99.90;;;;;;4890603;29;20032;-74
2021/01/16 01:22:49;;;;;;;4.68;2.00;;;0.60;99.90;;;;;;4890767;29;20102;-75
2021/01/16 01:25:16;;;;;;;3.25;1.63;;;0.60;99.90;;;;;;4890393;29;20029;-75
2021/01/16 01:27:43;;;;;;;3.45;1.58;;;0.60;99.90;;;;;;4874174;29;20029;-74
2021/01/16 01:30:09;;;;;;;4.70;2.00;;;0.60;99.90;;;;;;4890205;29;20052;-74
2021/01/16 01:32:36;;;;;;;6.43;2.22;;;0.60;99.90;;;;;;4890724;29;20029;-74
2021/01/16 01:35:03;;;;;;;4.78;1.98;;;0.60;99.90;;;;;;4890570;29;20111;-74
2021/01/16 01:37:28;;;;;;;5.22;1.63;;;0.60;99.90;;;;;;4890333;29;20083;-74
2021/01/16 01:39:55;;;;;;;4.97;1.63;;;0.50;99.90;;;;;;4890256;29;20534;-74
2021/01/16 01:42:21;;;;;;;3.35;1.55;;;0.50;99.90;;;;;;4890431;29;20040;-74
2021/01/16 01:44:48;;;;;;;5.57;2.15;;;0.50;99.90;;;;;;4873284;29;20089;-74
2021/01/16 01:47:15;;;;;;;4.25;1.92;;;0.50;99.90;;;;;;4890690;29;20371;-75
2021/01/16 01:49:42;;;;;;;7.68;2.10;;;0.40;99.90;;;;;;4873569;29;20029;-75
2021/01/16 01:52:09;;;;;;;3.80;1.73;;;0.50;99.90;;;;;;4890116;29;20053;-75
2021/01/16 01:54:36;;;;;;;5.10;2.25;;;0.50;99.90;;;;;;4890778;29;20021;-75
2021/01/16 01:57:06;;;;;;;3.75;1.48;;;0.50;99.90;;;;;;4873376;29;20037;-74
2021/01/16 01:59:36;;;;;;;4.60;2.13;;;0.50;99.90;;;;;;4889601;29;20052;-75
2021/01/16 02:02:03;;;;;;;4.13;1.90;;;0.50;99.90;;;;;;4890548;29;20041;-75
2021/01/16 02:04:31;;;;;;;4.00;1.52;;;0.50;99.90;;;;;;4873442;29;20037;-75
2021/01/16 02:07:00;;;;;;;4.00;2.15;;;0.50;99.90;;;;;;4890110;29;20112;-75
2021/01/16 02:09:26;;;;;;;2.95;1.48;;;0.50;99.90;;;;;;4890417;29;20036;-75
2021/01/16 02:11:56;;;;;;;5.22;1.90;;;0.50;99.90;;;;;;4873272;29;20041;-75
2021/01/16 02:14:28;;;;;;;2.95;1.27;;;0.50;99.90;;;;;;4873398;29;20033;-75
2021/01/16 02:16:55;;;;;;;2.53;1.65;;;0.50;99.90;;;;;;4890056;29;20037;-75
2021/01/16 02:19:42;;;;;;;3.05;1.70;;;0.40;99.90;;;;;;4889970;29;20025;-75
2021/01/16 02:22:08;;;;;;;2.65;1.33;;;0.40;99.90;;;;;;4890239;29;20092;-75
2021/01/16 02:24:42;;;;;;;6.43;2.70;;;0.40;99.90;;;;;;4889335;29;20029;-75
2021/01/16 02:27:41;;;;;;;3.08;1.45;;;0.30;99.90;;;;;;4889957;29;20040;-75
2021/01/16 02:30:08;;;;;;;5.82;1.90;;;0.30;99.90;;;;;;4893646;29;20049;-75
2021/01/16 02:32:35;;;;;;;2.35;1.17;;;0.30;99.90;;;;;;4876226;29;20065;-75
2021/01/16 02:35:04;;;;;;;5.88;1.50;;;0.30;99.90;;;;;;4893437;29;20032;-75
2021/01/16 02:37:43;;;;;;;4.40;1.55;;;0.30;99.90;;;;;;4876526;29;20033;-76
2021/01/16 02:40:33;;;;;;;3.25;1.70;;;0.30;99.90;;;;;;4875821;29;20084;-75
2021/01/16 02:43:10;;;;;;;2.28;1.15;;;0.30;99.90;;;;;;4893047;29;20249;-75
2021/01/16 02:45:45;;;;;;;4.07;1.80;;;0.30;99.90;;;;;;4893269;29;20025;-76
2021/01/16 02:48:20;;;;;;;2.53;1.85;;;0.30;99.90;;;;;;4893048;29;20029;-75
2021/01/16 02:50:50;;;;;;;6.35;1.70;;;0.20;99.90;;;;;;4893016;29;20040;-75
2021/01/16 02:53:19;;;;;;;3.30;2.50;;;0.20;99.90;;;;;;4876100;29;20025;-76
2021/01/16 02:55:45;;;;;;;4.60;1.70;;;0.20;99.90;;;;;;4892934;29;20049;-75
2021/01/16 02:58:11;;;;;;;6.38;2.28;;;0.20;99.90;;;;;;4893200;29;20546;-76
2021/01/16 03:00:38;;;;;;;5.53;2.00;;;0.20;99.90;;;;;;4875957;29;20044;-77
2021/01/16 03:03:04;;;;;;;2.80;1.40;;;0.10;99.90;;;;;;4892906;29;20060;-75
2021/01/16 03:05:29;;;;;;;2.50;1.52;;;0.10;99.90;;;;;;4892894;29;20033;-76
2021/01/16 03:07:56;;;;;;;11.02;2.22;;;0.10;99.90;;;;;;4892571;29;20032;-75
2021/01/16 03:10:23;;;;;;;5.78;1.52;;;0.10;99.90;;;;;;4892649;29;20044;-75
2021/01/16 03:12:52;;;;;;;2.83;1.50;;;0.10;99.90;;;;;;4892728;29;20052;-76
2021/01/16 03:15:19;;;;;;;4.15;1.98;;;0.10;99.90;;;;;;4892211;29;20037;-76
2021/01/16 03:17:49;;;;;;;3.25;2.03;;;0.10;99.90;;;;;;4892607;29;20025;-76
2021/01/16 03:20:19;;;;;;;4.18;1.80;;;0.10;99.90;;;;;;4892609;29;20033;-75
2021/01/16 03:22:45;;;;;;;4.95;2.28;;;0.10;99.90;;;;;;4875602;29;20516;-76
2021/01/16 03:25:11;;;;;;;4.32;1.50;;;0.10;99.90;;;;;;4892176;29;20030;-76
2021/01/16 03:27:37;;;;;;;2.97;1.80;;;0.10;99.90;;;;;;4892491;29;20025;-75
2021/01/16 03:30:04;;;;;;;5.38;1.70;;;0.10;99.90;;;;;;4892203;29;20068;-75
2021/01/16 03:32:29;;;;;;;3.10;1.33;;;0.10;99.90;;;;;;4892540;29;20062;-76
2021/01/16 03:34:55;;;;;;;7.35;2.08;;;0.10;99.90;;;;;;4892275;29;20032;-76
2021/01/16 03:37:21;;;;;;;3.55;2.00;;;0.20;99.90;;;;;;4891871;29;20056;-76
2021/01/16 03:39:47;;;;;;;2.35;1.30;;;0.10;99.90;;;;;;4891278;29;20029;-76
2021/01/16 03:42:13;;;;;;;4.93;2.10;;;0.10;99.90;;;;;;4875313;29;20116;-76
2021/01/16 03:44:38;;;;;;;5.25;2.15;;;0.10;99.90;;;;;;4891747;29;20092;-77
2021/01/16 03:47:05;;;;;;;5.68;1.98;;;0.10;99.90;;;;;;4892302;29;20032;-76
2021/01/16 03:49:31;;;;;;;3.38;1.85;;;0.10;99.90;;;;;;4891677;29;20065;-76
2021/01/16 03:51:57;;;;;;;3.03;1.77;;;0.00;99.90;;;;;;4892107;29;20033;-76
2021/01/16 03:54:23;;;;;;;3.65;2.15;;;0.00;99.90;;;;;;4891983;29;20106;-76
2021/01/16 03:56:49;;;;;;;3.88;2.05;;;0.00;99.90;;;;;;4874917;29;20421;-76
2021/01/16 03:59:14;;;;;;;3.95;1.80;;;-0.10;99.90;;;;;;4874776;29;20022;-76
2021/01/16 04:01:41;;;;;;;3.53;1.65;;;-0.10;99.90;;;;;;4875129;29;20036;-76
2021/01/16 04:04:07;;;;;;;6.43;2.67;;;-0.10;99.90;;;;;;4891103;29;20037;-76
2021/01/16 04:06:32;;;;;;;5.07;1.85;;;-0.20;99.90;;;;;;4891960;29;20032;-76
2021/01/16 04:08:58;;;;;;;7.55;1.77;;;-0.20;99.90;;;;;;4874965;29;20029;-76
2021/01/16 04:11:23;;;;;;;5.53;2.53;;;-0.30;99.90;;;;;;4891092;29;20052;-76
2021/01/16 04:13:49;;;;;;;4.30;2.10;;;-0.40;99.90;;;;;;4891424;29;20032;-76
2021/01/16 04:16:15;;;;;;;24.30;2.30;;;-0.40;99.90;;;;;;4874800;29;20534;-75
2021/01/16 04:18:41;;;;;;;3.40;1.75;;;-0.40;99.90;;;;;;4874491;29;20028;-76
2021/01/16 04:21:06;;;;;;;3.60;1.38;;;-0.50;99.90;;;;;;4891441;29;20029;-76
2021/01/16 04:23:32;;;;;;;5.03;1.98;;;-0.50;99.90;;;;;;4891434;29;20062;-76
2021/01/16 04:25:58;;;;;;;4.25;1.95;;;-0.50;99.90;;;;;;4891334;29;20390;-76
2021/01/16 04:28:24;;;;;;;3.83;1.50;;;-0.50;99.90;;;;;;4891495;29;20060;-75
2021/01/16 04:30:50;;;;;;;6.10;2.35;;;-0.40;99.90;;;;;;4890910;29;20485;-76
2021/01/16 04:33:16;;;;;;;5.80;2.13;;;-0.40;99.90;;;;;;4891245;29;20029;-76
2021/01/16 04:35:42;;;;;;;7.82;2.35;;;-0.30;99.90;;;;;;4874709;29;20040;-76
2021/01/16 04:38:08;;;;;;;3.70;1.67;;;-0.20;99.90;;;;;;4873849;29;20029;-76
2021/01/16 04:40:34;;;;;;;4.80;2.13;;;-0.20;99.90;;;;;;4873877;29;20060;-76
2021/01/16 04:43:04;;;;;;;3.17;1.52;;;-0.10;99.90;;;;;;4874468;29;20096;-76
2021/01/16 04:45:32;;;;;;;3.40;1.83;;;-0.10;99.90;;;;;;4890823;29;20060;-76
2021/01/16 04:48:03;;;;;;;6.35;2.08;;;-0.10;99.90;;;;;;4891115;29;20032;-75
2021/01/16 04:50:30;;;;;;;4.93;2.13;;;-0.10;99.90;;;;;;4873912;29;20037;-77
2021/01/16 04:53:05;;;;;;;4.10;1.88;;;-0.10;99.90;;;;;;4873282;29;20032;-76
2021/01/16 04:55:32;;;;;;;4.68;1.90;;;-0.10;99.90;;;;;;4890960;29;20067;-76
2021/01/16 04:58:09;;;;;;;5.35;1.77;;;-0.10;99.90;;;;;;4890920;29;20104;-76
2021/01/16 05:00:37;;;;;;;3.85;1.73;;;-0.10;99.90;;;;;;4873865;29;20097;-76
2021/01/16 05:03:11;;;;;;;6.70;2.53;;;-0.10;99.90;;;;;;4891196;29;20875;-76
2021/01/16 05:05:39;;;;;;;6.10;2.33;;;-0.10;99.90;;;;;;4891566;29;20025;-76
2021/01/16 05:08:06;;;;;;;4.85;2.20;;;-0.10;99.90;;;;;;4874014;29;20033;-76
2021/01/16 05:10:41;;;;;;;3.20;1.90;;;-0.10;99.90;;;;;;4890585;29;20092;-77
2021/01/16 05:13:12;;;;;;;7.65;2.35;;;-0.10;99.90;;;;;;4890025;29;20061;-76
2021/01/16 05:15:40;;;;;;;7.07;2.47;;;-0.20;99.90;;;;;;4874028;29;20033;-75
2021/01/16 05:18:14;;;;;;;3.70;1.88;;;-0.10;99.90;;;;;;4874162;29;20037;-77
2021/01/16 05:20:43;;;;;;;5.22;2.22;;;-0.10;99.90;;;;;;4890371;29;20044;-76
2021/01/16 05:23:17;;;;;;;3.80;1.55;;;-0.10;99.90;;;;;;4890745;29;20118;-75
2021/01/16 05:25:50;;;;;;;4.35;1.83;;;-0.10;99.90;;;;;;4890751;29;20466;-77
2021/01/16 05:28:21;;;;;;;3.83;2.08;;;-0.20;99.90;;;;;;4890493;29;20033;-75
2021/01/16 05:30:59;;;;;;;1.80;1.48;;;-0.20;99.90;;;;;;4890613;29;20041;-75
2021/01/16 05:33:27;;;;;;;5.45;2.03;;;-0.20;99.90;;;;;;4890710;29;20033;-74
2021/01/16 05:35:57;;;;;;;2.78;1.73;;;-0.20;99.90;;;;;;4890182;29;20359;-74
2021/01/16 05:38:34;;;;;;;5.25;2.13;;;-0.20;99.90;;;;;;4873303;29;20088;-76
2021/01/16 05:41:04;;;;;;;4.35;1.55;;;-0.20;99.90;;;;;;4889947;29;20060;-75
2021/01/16 05:43:29;;;;;;;3.75;1.63;;;-0.20;99.90;;;;;;4890314;29;20025;-76
2021/01/16 05:46:02;;;;;;;5.60;2.17;;;-0.20;99.90;;;;;;4890459;29;20037;-75
2021/01/16 05:48:29;;;;;;;4.85;1.92;;;-0.20;99.90;;;;;;4873431;29;20037;-76
2021/01/16 05:50:56;;;;;;;2.67;1.67;;;-0.20;99.90;;;;;;4890393;29;20045;-74
2021/01/16 05:53:24;;;;;;;8.32;1.77;;;-0.30;99.90;;;;;;4890408;29;20056;-76
2021/01/16 05:55:50;;;;;;;4.95;1.80;;;-0.30;99.90;;;;;;4889903;29;20033;-76
2021/01/16 05:58:18;;;;;;;5.53;2.10;;;-0.30;99.90;;;;;;4890286;29;20025;-74
2021/01/16 06:00:48;;;;;;;1.52;1.27;;;-0.30;99.90;;;;;;4890324;29;20025;-74
2021/01/16 06:03:16;;;;;;;5.60;2.20;;;-0.30;99.90;;;;;;4875045;29;20057;-76
2021/01/16 06:05:47;;;;;;;4.50;2.30;;;-0.30;99.90;;;;;;4893952;29;20033;-75
2021/01/16 06:08:13;;;;;;;4.10;2.10;;;-0.40;99.90;;;;;;4877410;29;20029;-75
2021/01/16 06:10:39;;;;;;;4.78;1.55;;;-0.40;99.90;;;;;;4892974;29;20394;-75
2021/01/16 06:13:19;;;;;;;4.50;1.50;;;-0.40;99.90;;;;;;4893843;29;20111;-75
2021/01/16 06:15:47;;;;;;;7.57;2.38;;;-0.40;99.90;;;;;;4893198;29;20029;-76
2021/01/16 06:18:28;;;;;;;5.28;2.25;;;-0.30;99.90;;;;;;4893193;29;20096;-75
2021/01/16 06:20:55;;;;;;;5.28;2.22;;;-0.30;99.90;;;;;;4893806;29;20037;-74
2021/01/16 06:23:25;;;;;;;6.82;2.45;;;-0.40;99.90;;;;;;4876776;29;20025;-74
2021/01/16 06:25:55;;;;;;;3.60;1.48;;;-0.30;99.90;;;;;;4893663;29;20036;-75
2021/01/16 06:28:26;;;;;;;4.28;2.08;;;-0.30;99.90;;;;;;4893471;29;20394;-75
2021/01/16 06:30:56;;;;;;;3.80;1.77;;;-0.30;99.90;;;;;;4893074;29;20096;-75
2021/01/16 06:33:30;;;;;;;4.70;1.88;;;-0.40;99.90;;;;;;4893544;29;20055;-75
2021/01/16 06:36:05;;;;;;;9.45;2.75;;;-0.30;99.90;;;;;;4876557;29;20032;-75
2021/01/16 06:38:36;;;;;;;3.42;2.03;;;-0.40;99.90;;;;;;4876488;29;20100;-75
2021/01/16 06:41:16;;;;;;;2.60;1.48;;;-0.30;99.90;;;;;;4892580;29;20078;-75
2021/01/16 06:43:46;;;;;;;6.57;2.83;;;-0.30;99.90;;;;;;4892253;29;20053;-74
2021/01/16 06:46:15;;;;;;;5.18;1.90;;;-0.30;99.90;;;;;;4892532;29;20077;-74
2021/01/16 06:48:43;;;;;;;1.70;1.13;;;-0.30;99.90;;;;;;4892841;29;20029;-76
2021/01/16 06:51:11;;;;;;;6.63;2.67;;;-0.30;99.90;;;;;;4893099;29;20041;-75
2021/01/16 06:53:38;;;;;;;2.72;1.67;;;-0.40;99.90;;;;;;4892605;29;20029;-75
2021/01/16 06:56:14;;;;;;;5.53;2.65;;;-0.40;99.90;;;;;;4876570;29;20048;-75
2021/01/16 06:58:42;;;;;;;6.43;3.05;;;-0.40;99.90;;;;;;4876113;29;20053;-75
2021/01/16 07:01:10;;;;;;;4.15;1.92;;;-0.40;99.90;;;;;;4892716;29;20029;-75
2021/01/16 07:03:44;;;;;;;5.00;2.10;;;-0.40;99.90;;;;;;4892967;29;20080;-76
2021/01/16 07:06:10;;;;;;;3.28;2.45;;;-0.40;99.90;;;;;;4892864;29;20041;-76
2021/01/16 07:08:40;;;;;;;4.53;2.17;;;-0.40;99.90;;;;;;4875625;29;20044;-76
2021/01/16 07:11:07;;;;;;;5.55;2.38;;;-0.40;99.90;;;;;;4876102;29;20037;-76
2021/01/16 07:13:33;;;;;;;4.07;1.90;;;-0.40;99.90;;;;;;4892141;29;20025;-74
2021/01/16 07:16:02;;;;;;;5.45;2.67;;;-0.40;99.90;;;;;;4891889;29;20031;-74
2021/01/16 07:18:28;;;;;;;3.58;2.03;;;-0.40;99.90;;;;;;4875804;29;20518;-75
2021/01/16 07:20:56;;;;;;;4.25;1.88;;;-0.40;99.90;;;;;;4892004;29;20057;-75
2021/01/16 07:23:22;;;;;;;6.70;2.90;;;-0.50;99.90;;;;;;4892621;29;20032;-75
2021/01/16 07:25:52;;;;;;;5.90;2.35;;;-0.50;99.90;;;;;;4875790;29;20065;-74
2021/01/16 07:28:23;;;;;;;2.80;1.60;;;-0.50;99.90;;;;;;4875420;29;20047;-76
2021/01/16 07:30:50;;;;;;;4.35;2.45;;;-0.40;99.90;;;;;;4891720;29;20045;-74
2021/01/16 07:33:17;;;;;;;5.57;1.75;;;-0.40;99.90;;;;;;4875468;29;20025;-75
2021/01/16 07:35:50;;;;;;;5.43;2.15;;;-0.40;99.90;;;;;;4892082;29;20037;-77
2021/01/16 07:38:18;;;;;;;9.13;3.00;;;-0.50;99.90;;;;;;4892337;29;20072;-76
2021/01/16 07:40:46;;;;;;;5.50;2.40;;;-0.40;99.90;;;;;;4874502;29;20342;-75
2021/01/16 07:43:35;;;;;;;4.05;2.22;;;-0.50;99.90;;;;;;4891921;29;20423;-77
2021/01/16 07:46:01;;;;;;;4.10;1.55;;;-0.40;99.90;;;;;;4892140;29;20514;-75
2021/01/16 07:48:32;;;;;;;5.15;2.53;;;-0.40;99.90;;;;;;4874603;29;20528;-77
2021/01/16 07:51:00;;;;;;;4.65;2.15;;;-0.40;99.90;;;;;;4874833;29;20135;-77
2021/01/16 07:53:27;;;;;;;4.70;2.20;;;-0.40;99.90;;;;;;4875226;29;20040;-75
2021/01/16 07:56:01;;;;;;;3.90;2.45;;;-0.30;99.90;;;;;;4874234;29;20036;-75
2021/01/16 07:58:33;;;;;;;6.05;2.63;;;-0.40;99.90;;;;;;4891650;29;20557;-75
2021/01/16 08:01:43;;;;;;;5.45;2.10;;;-0.40;99.90;;;;;;4891468;29;20029;-76
2021/01/16 08:04:25;;;;;;;5.65;2.47;;;-0.40;99.90;;;;;;4888544;29;20143;-76
2021/01/16 08:07:05;;;;;;;4.97;2.35;;;-0.40;99.90;;;;;;4891526;29;20037;-77
2021/01/16 08:09:50;;;;;;;3.22;1.85;;;-0.30;99.90;;;;;;4891283;29;20041;-77
2021/01/16 08:12:18;;;;;;;7.00;2.70;;;-0.30;99.90;;;;;;4874538;29;20553;-76
2021/01/16 08:14:44;;;;;;;3.08;2.08;;;-0.30;99.90;;;;;;4874722;29;20021;-77
2021/01/16 08:17:24;;;;;;;4.13;2.20;;;-0.30;99.90;;;;;;4890997;29;20808;-77
2021/01/16 08:20:15;;;;;;;3.60;2.28;;;-0.20;99.90;;;;;;4891479;29;20051;-77
2021/01/16 08:22:44;;;;;;;8.00;2.25;;;-0.20;99.90;;;;;;4891377;29;20033;-76
2021/01/16 08:25:11;;;;;;;4.80;2.40;;;-0.20;99.90;;;;;;4891129;29;20031;-77
2021/01/16 08:27:39;;;;;;;3.75;2.25;;;-0.10;99.90;;;;;;4890942;29;20021;-77
2021/01/16 08:30:13;;;;;;;4.78;2.20;;;-0.20;99.90;;;;;;4872898;29;20041;-77
2021/01/16 08:32:54;;;;;;;4.90;2.65;;;-0.20;99.90;;;;;;4891164;29;20036;-77
2021/01/16 08:35:23;;;;;;;5.10;2.30;;;-0.10;99.90;;;;;;4874161;29;20169;-77
2021/01/16 08:37:50;;;;;;;4.85;2.60;;;-0.10;99.90;;;;;;4891009;29;20097;-77
2021/01/16 08:40:32;;;;;;;3.53;1.88;;;-0.10;99.90;;;;;;4890945;29;20454;-77
2021/01/16 08:42:57;;;;;;;4.95;2.95;;;0.00;99.90;;;;;;4873745;29;20105;-76
2021/01/16 08:45:23;;;;;;;4.25;2.65;;;-0.10;99.90;;;;;;4873442;29;20052;-76
2021/01/16 08:47:54;;;;;;;6.88;2.95;;;-0.10;99.90;;;;;;4890693;29;20037;-76
2021/01/16 08:50:20;;;;;;;4.88;2.92;;;-0.10;99.90;;;;;;4890390;29;20095;-76
2021/01/16 08:52:45;;;;;;;8.95;3.08;;;0.00;99.90;;;;;;4890920;29;20052;-76
2021/01/16 08:55:12;;;;;;;9.13;2.80;;;0.00;99.90;;;;;;4890723;29;20093;-77
2021/01/16 08:57:38;;;;;;;4.75;2.35;;;0.10;99.90;;;;;;4872867;29;20096;-77
2021/01/16 09:00:22;;;;;;;4.85;2.35;;;0.10;99.90;;;;;;4872791;29;20032;-75
2021/01/16 09:03:16;;;;;;;6.13;2.80;;;0.10;99.90;;;;;;4867273;29;20075;-76
2021/01/16 09:05:44;;;;;;;4.63;2.95;;;0.20;99.90;;;;;;4873110;29;20043;-77
2021/01/16 09:08:24;;;;;;;5.75;2.55;;;0.20;99.90;;;;;;4873235;29;20029;-76
2021/01/16 09:10:52;;;;;;;4.50;2.72;;;0.20;99.90;;;;;;4890402;29;20049;-76
2021/01/16 09:13:25;;;;;;;3.90;2.28;;;0.20;99.90;;;;;;4872629;29;20126;-77
2021/01/16 09:15:51;;;;;;;4.57;2.20;;;0.20;99.90;;;;;;4873533;29;20060;-77
2021/01/16 09:18:17;;;;;;;6.15;2.70;;;0.20;99.90;;;;;;4890280;29;20061;-76
2021/01/16 09:20:53;;;;;;;5.47;2.55;;;0.30;99.90;;;;;;4873689;29;20116;-77
2021/01/16 09:23:18;;;;;;;4.30;1.83;;;0.30;99.90;;;;;;4889421;29;20370;-77
2021/01/16 09:25:55;;;;;;;3.15;2.20;;;0.30;99.90;;;;;;4876573;29;20025;-78
2021/01/16 09:28:39;;;;;;;5.32;2.92;;;0.40;99.90;;;;;;4890121;29;20029;-77
2021/01/16 09:31:25;;;;;;;;;;;0.40;99.90;;;;;;4889776;29;20049;-78
2021/01/16 09:33:57;;;;;;;5.93;2.25;;;0.40;99.90;;;;;;4879644;29;19968;-77
2021/01/16 09:36:37;;;;;;;5.32;2.60;;;0.40;99.90;;;;;;4873055;29;20509;-76
2021/01/16 09:39:05;;;;;;;4.57;1.83;;;0.40;99.90;;;;;;4893133;29;20079;-77
2021/01/16 09:41:34;;;;;;;3.28;2.20;;;0.40;99.90;;;;;;4893456;29;20057;-77
2021/01/16 09:44:02;;;;;;;8.20;2.63;;;0.40;99.90;;;;;;4894156;29;20029;-77
2021/01/16 09:46:36;;;;;;;2.72;1.73;;;0.40;99.90;;;;;;4893925;29;20029;-76
2021/01/16 09:49:07;;;;;;;5.18;2.50;;;0.40;99.90;;;;;;4876574;29;20131;-77
2021/01/16 09:51:35;;;;;;;4.43;2.63;;;0.40;99.90;;;;;;4877134;29;20128;-76
2021/01/16 09:54:16;;;;;;;6.38;2.58;;;0.40;99.90;;;;;;4876656;29;20069;-77
2021/01/16 09:56:46;;;;;;;7.00;2.30;;;0.40;99.90;;;;;;4893618;29;20033;-76
2021/01/16 09:59:23;;;;;;;4.00;1.70;;;0.40;99.90;;;;;;4893182;29;20036;-77
2021/01/16 10:02:12;;;;;;;10.23;2.47;;;0.50;99.90;;;;;;4876688;29;20100;-74
2021/01/16 10:04:42;;;;;;;3.50;1.70;;;0.40;99.90;;;;;;4893994;29;20037;-77
2021/01/16 10:07:16;;;;;;;3.97;2.13;;;0.50;99.90;;;;;;4893241;29;20473;-77
2021/01/16 10:09:47;;;;;;;10.68;2.40;;;0.50;99.90;;;;;;4893855;29;20043;-76
2021/01/16 10:12:40;;;;;;;6.82;3.10;;;0.50;99.90;;;;;;4893306;29;20097;-78
2021/01/16 10:15:13;;;;;;;5.40;2.75;;;0.60;99.90;;;;;;4876185;29;20029;-78
2021/01/16 10:17:44;;;;;;;6.65;2.63;;;0.70;99.90;;;;;;4893870;29;20040;-76
2021/01/16 10:20:16;;;;;;;7.95;2.63;;;0.70;99.90;;;;;;4876643;29;20033;-76
2021/01/16 10:22:54;;;;;;;4.15;1.70;;;0.80;99.90;;;;;;4876769;29;20188;-76
2021/01/16 10:25:22;;;;;;;5.03;2.63;;;0.80;99.90;;;;;;4893168;29;20044;-76
2021/01/16 10:27:52;;;;;;;5.32;2.90;;;0.80;99.90;;;;;;4889505;29;20085;-76
2021/01/16 10:30:33;;;;;;;7.55;3.10;;;0.80;99.90;;;;;;4876037;29;20037;-76
2021/01/16 10:32:59;;;;;;;7.18;2.95;;;0.80;99.90;;;;;;4893169;29;20040;-76
2021/01/16 10:35:32;;;;;;;5.22;2.38;;;0.90;99.90;;;;;;4876783;29;20062;-76
2021/01/16 10:38:00;;;;;;;8.40;3.80;;;0.90;99.90;;;;;;4892978;29;20047;-77
2021/01/16 10:40:29;;;;;;;9.73;4.25;;;0.90;99.90;;;;;;4892900;29;20060;-77
2021/01/16 10:42:57;;;;;;;9.25;3.75;;;0.90;99.90;;;;;;4893267;29;20041;-77
2021/01/16 10:45:29;;;;;;;5.65;2.80;;;0.90;99.90;;;;;;4893451;29;20458;-75
2021/01/16 10:47:56;;;;;;;10.23;3.92;;;0.90;99.90;;;;;;4893023;29;20107;-77
2021/01/16 10:50:27;;;;;;;8.00;2.88;;;0.90;99.90;;;;;;4876198;29;20044;-76
2021/01/16 10:53:06;;;;;;;6.78;3.20;;;0.90;99.90;;;;;;4893318;29;20037;-75
2021/01/16 10:55:55;;;;;;;8.32;3.88;;;1.00;99.90;;;;;;4876222;29;20037;-76
2021/01/16 10:58:30;;;;;;;7.32;3.60;;;1.00;99.90;;;;;;4893068;29;20033;-77
2021/01/16 11:00:58;;;;;;;16.10;4.35;;;1.00;99.90;;;;;;4876438;29;20044;-76
2021/01/16 11:03:29;;;;;;;16.48;4.75;;;1.00;99.90;;;;;;4892770;29;20107;-76
2021/01/16 11:05:56;;;;;;;5.88;2.35;;;1.00;99.90;;;;;;4875855;29;20039;-76
2021/01/16 11:08:27;;;;;;;8.60;3.38;;;1.00;99.90;;;;;;4876502;29;20033;-78
2021/01/16 11:10:53;;;;;;;10.07;4.60;;;1.00;99.90;;;;;;4876066;29;20049;-77
2021/01/16 11:13:25;;;;;;;7.03;3.90;;;1.10;99.90;;;;;;4892956;29;20469;-75
2021/01/16 11:15:53;;;;;;;7.80;3.42;;;1.10;99.90;;;;;;4892846;29;20037;-74
2021/01/16 11:18:30;;;;;;;7.50;3.70;;;1.10;99.90;;;;;;4893084;29;20021;-75
2021/01/16 11:21:05;;;;;;;5.40;3.42;;;1.10;99.90;;;;;;4876258;29;20039;-76
2021/01/16 11:23:42;;;;;;;13.65;5.55;;;1.10;99.90;;;;;;4901600;29;20036;-75
2021/01/16 11:26:10;;;;;;;11.05;5.40;;;1.10;99.90;;;;;;4877618;29;20041;-77
2021/01/16 11:28:52;;;;;;;10.27;4.68;;;1.10;99.90;;;;;;4893801;29;20036;-75
2021/01/16 11:31:28;;;;;;;12.57;6.20;;;1.20;99.90;;;;;;4893089;29;20037;-76
2021/01/16 11:34:09;;;;;;;7.82;4.65;;;1.10;99.90;;;;;;4876005;29;20122;-76
2021/01/16 11:36:51;;;;;;;12.60;4.47;;;1.20;99.90;;;;;;4892510;29;20064;-76
2021/01/16 11:39:53;;;;;;;9.73;4.65;;;1.20;99.90;;;;;;4891573;29;20025;-75
2021/01/16 11:42:20;;;;;;;11.35;6.25;;;1.20;99.90;;;;;;4874323;29;20051;-75
2021/01/16 11:44:54;;;;;;;9.43;4.03;;;1.20;99.90;;;;;;4873712;29;20040;-76
2021/01/16 11:47:20;;;;;;;5.65;3.60;;;1.20;99.90;;;;;;4891076;29;20069;-75
2021/01/16 11:49:46;;;;;;;6.65;3.25;;;1.20;99.90;;;;;;4891368;29;20037;-75
2021/01/16 11:52:15;;;;;;;8.93;3.67;;;1.20;99.90;;;;;;4891159;29;20045;-76
2021/01/16 11:54:41;;;;;;;8.15;3.88;;;1.20;99.90;;;;;;4874611;29;20033;-75
2021/01/16 11:57:12;;;;;;;5.90;3.05;;;1.30;99.90;;;;;;4873187;29;20033;-75
2021/01/16 11:59:41;;;;;;;7.07;3.55;;;1.30;99.90;;;;;;4872244;29;20097;-74
2021/01/16 12:02:25;;;;;;;9.40;3.67;;;1.30;99.90;;;;;;4871550;29;20038;-77
2021/01/16 12:04:51;;;;;;;13.27;5.32;;;1.40;99.90;;;;;;4888027;29;20037;-75
2021/01/16 12:07:18;;;;;;;10.75;4.65;;;1.30;99.90;;;;;;4871735;29;20029;-75
2021/01/16 12:09:47;;;;;;;6.32;3.67;;;1.40;99.90;;;;;;4873832;29;20056;-74
2021/01/16 12:12:13;;;;;;;8.35;5.43;;;1.40;99.90;;;;;;4871733;29;20033;-74
2021/01/16 12:14:40;;;;;;;11.18;5.45;;;1.40;99.90;;;;;;4874548;29;20037;-75
2021/01/16 12:17:16;;;;;;;11.95;4.63;;;1.50;99.90;;;;;;4874450;29;20025;-75
2021/01/16 12:19:42;;;;;;;7.28;3.53;;;1.40;99.90;;;;;;4892306;29;20108;-73
2021/01/16 12:22:09;;;;;;;7.90;3.70;;;1.50;99.90;;;;;;4892090;29;20489;-74
2021/01/16 12:24:37;;;;;;;5.47;2.85;;;1.50;99.90;;;;;;4891868;29;20033;-74
2021/01/16 12:27:05;;;;;;;9.13;3.65;;;1.50;99.90;;;;;;4890374;29;20037;-74
2021/01/16 12:29:35;;;;;;;6.95;3.22;;;1.60;99.90;;;;;;4892148;29;20112;-74
2021/01/16 12:32:12;;;;;;;9.85;5.00;;;1.60;99.90;;;;;;4875221;29;20063;-74
2021/01/16 12:34:49;;;;;;;12.02;4.43;;;1.60;99.90;;;;;;4891240;29;20029;-74
2021/01/16 12:37:27;;;;;;;6.10;3.78;;;1.60;99.90;;;;;;4891602;29;20067;-74
2021/01/16 12:39:53;;;;;;;7.88;4.20;;;1.70;99.90;;;;;;4889869;29;20048;-72
2021/01/16 12:42:19;;;;;;;7.38;4.18;;;1.70;99.90;;;;;;4892022;29;20037;-74
2021/01/16 12:44:45;;;;;;;9.43;4.63;;;1.70;99.90;;;;;;4891033;29;20477;-74
2021/01/16 12:47:20;;;;;;;14.75;4.82;;;1.80;99.90;;;;;;4890917;29;20047;-73
2021/01/16 12:49:52;;;;;;;8.35;3.67;;;1.80;99.90;;;;;;4874742;29;20025;-74
2021/01/16 12:52:25;;;;;;;9.25;4.15;;;1.80;99.90;;;;;;4890920;29;20482;-72
2021/01/16 12:55:05;;;;;;;7.88;4.55;;;1.80;99.90;;;;;;4872615;29;20398;-73
2021/01/16 12:57:42;;;;;;;9.60;4.95;;;1.80;99.90;;;;;;4877154;29;20049;-74
2021/01/16 13:00:14;;;;;;;15.13;6.47;;;1.90;99.90;;;;;;4877204;29;20033;-74
2021/01/16 13:02:40;;;;;;;8.93;4.72;;;1.80;99.90;;;;;;4875050;29;20038;-74
2021/01/16 13:05:07;;;;;;;10.85;5.20;;;1.90;99.90;;;;;;4883703;29;20048;-75
2021/01/16 13:07:38;;;;;;;10.80;4.93;;;1.90;99.90;;;;;;4869538;29;20030;-73
2021/01/16 13:10:10;;;;;;;16.92;5.72;;;1.90;99.90;;;;;;4881409;29;20055;-74